createdAt,value
2022-10-23T00:07:13.273Z,13.26
2022-10-23T00:17:15.324Z,13.20
2022-10-23T00:27:17.271Z,13.25
2022-10-23T00:37:19.459Z,13.21
2022-10-23T00:47:21.855Z,12.89
2022-10-23T00:57:23.900Z,12.70
2022-10-23T01:07:57.532Z,12.80
2022-10-23T01:18:07.894Z,13.04
2022-10-23T01:28:16.305Z,13.23
2022-10-23T01:38:31.478Z,13.27
2022-10-23T01:48:39.045Z,13.19
2022-10-23T01:58:46.077Z,13.28
2022-10-23T02:08:49.421Z,13.37
2022-10-23T02:19:03.784Z,13.33
2022-10-23T02:29:18.788Z,13.38
2022-10-23T02:39:23.259Z,13.48
2022-10-23T02:50:00.956Z,13.42
2022-10-23T03:00:02.931Z,13.47
2022-10-23T03:10:05.455Z,13.54
2022-10-23T03:20:09.074Z,13.46
2022-10-23T03:30:11.356Z,13.46
2022-10-23T03:40:14.298Z,13.28
2022-10-23T03:50:16.669Z,12.74
2022-10-23T04:00:18.866Z,12.37
2022-10-23T04:10:22.188Z,12.38
2022-10-23T04:20:25.164Z,12.51
2022-10-23T04:30:27.134Z,12.68
2022-10-23T04:40:30.473Z,12.71
2022-10-23T04:50:32.604Z,12.34
2022-10-23T05:00:53.738Z,12.05
2022-10-23T05:10:59.387Z,12.09
2022-10-23T05:21:15.148Z,12.18
2022-10-23T05:31:19.280Z,12.40
2022-10-23T05:41:25.051Z,12.64
2022-10-23T05:51:31.923Z,12.74
2022-10-23T06:01:39.611Z,12.92
2022-10-23T06:11:42.542Z,13.13
2022-10-23T06:21:49.116Z,13.28
2022-10-23T06:31:51.930Z,13.40
2022-10-23T06:41:54.572Z,13.72
2022-10-23T06:52:41.651Z,14.03
2022-10-23T07:02:42.445Z,14.05
2022-10-23T07:12:45.643Z,14.09
2022-10-23T07:23:16.132Z,14.43
2022-10-23T07:33:19.496Z,15.13
2022-10-23T07:43:44.169Z,15.83
2022-10-23T07:53:46.986Z,16.02
2022-10-23T08:04:27.184Z,16.36
2022-10-23T08:14:34.214Z,16.45
2022-10-23T08:24:37.030Z,16.94
2022-10-23T08:34:40.007Z,17.39
2022-10-23T08:44:50.783Z,17.64
2022-10-23T08:55:13.352Z,17.69
2022-10-23T09:05:39.282Z,17.82
2022-10-23T09:15:49.632Z,18.02
2022-10-23T09:25:57.233Z,18.06
2022-10-23T09:36:09.411Z,17.70
2022-10-23T09:46:12.238Z,17.78
2022-10-23T09:56:35.474Z,17.98
2022-10-23T10:06:37.773Z,17.83
2022-10-23T10:27:07.464Z,17.87
2022-10-23T10:37:36.841Z,18.08
2022-10-23T10:48:00.133Z,18.54
2022-10-23T10:58:42.420Z,18.94
2022-10-23T11:08:57.325Z,18.81
2022-10-23T11:19:24.900Z,18.83
2022-10-23T11:29:30.079Z,18.91
2022-10-23T11:39:34.874Z,19.53
2022-10-23T11:49:47.342Z,20.26
2022-10-23T11:59:50.502Z,20.92
2022-10-23T12:10:00.656Z,20.91
2022-10-23T12:20:11.333Z,20.71
2022-10-23T12:30:34.573Z,20.18
2022-10-23T12:40:37.096Z,19.17
2022-10-23T12:50:39.238Z,18.90
2022-10-23T13:00:51.412Z,19.07
2022-10-23T13:10:53.472Z,19.07
2022-10-23T13:20:59.259Z,18.80
2022-10-23T13:31:06.586Z,18.48
2022-10-23T13:41:20.252Z,18.10
2022-10-23T13:51:28.736Z,17.91
2022-10-23T14:01:34.010Z,17.81
2022-10-23T14:11:36.163Z,17.79
2022-10-23T14:21:38.231Z,17.66
2022-10-23T14:31:40.334Z,17.13
2022-10-23T14:41:42.314Z,16.34
2022-10-23T14:51:44.370Z,15.76
2022-10-23T15:01:48.366Z,15.42
2022-10-23T15:11:50.737Z,14.90
2022-10-23T15:21:52.792Z,14.54
2022-10-23T15:31:57.938Z,14.53
2022-10-23T15:42:00.981Z,14.31
2022-10-23T15:52:06.606Z,14.15
2022-10-23T16:02:11.707Z,14.13
2022-10-23T16:12:14.271Z,14.26
2022-10-23T16:22:17.651Z,14.30
2022-10-23T16:32:19.904Z,13.78
2022-10-23T16:42:22.017Z,13.12
2022-10-23T16:52:56.193Z,12.76
2022-10-23T17:03:01.236Z,12.61
2022-10-23T17:13:03.224Z,12.32
2022-10-23T17:23:05.278Z,11.89
2022-10-23T17:33:09.276Z,11.74
2022-10-23T17:43:12.627Z,11.64
2022-10-23T17:53:14.753Z,11.32
2022-10-23T18:03:19.753Z,10.98
2022-10-23T18:13:22.274Z,10.85
2022-10-23T18:23:28.348Z,10.73
2022-10-23T18:33:30.781Z,10.46
2022-10-23T18:43:43.184Z,10.13
2022-10-23T18:53:47.154Z,9.96
2022-10-23T19:03:54.004Z,9.88
2022-10-23T19:13:56.165Z,9.67
2022-10-23T19:24:04.585Z,9.38
2022-10-23T19:34:06.785Z,9.29
2022-10-23T19:44:13.367Z,9.26
2022-10-23T19:54:16.255Z,9.08
2022-10-23T20:04:19.168Z,8.80
2022-10-23T20:14:21.283Z,8.68
2022-10-23T20:24:23.543Z,8.63
2022-10-23T20:34:27.096Z,8.53
2022-10-23T20:44:30.017Z,8.41
2022-10-23T20:54:32.178Z,8.44
2022-10-23T21:04:34.499Z,8.64
2022-10-23T21:14:37.035Z,8.94
2022-10-23T21:24:39.786Z,9.12
2022-10-23T21:34:42.007Z,9.03
2022-10-23T21:44:44.084Z,8.97
2022-10-23T21:54:46.109Z,9.13
2022-10-23T22:04:48.327Z,9.19
2022-10-23T22:14:50.378Z,9.25
2022-10-23T22:24:52.330Z,9.43
2022-10-23T22:34:54.332Z,9.24
2022-10-23T22:44:56.235Z,8.97
2022-10-23T22:54:58.296Z,8.75
2022-10-23T23:05:00.391Z,8.62
2022-10-23T23:15:02.356Z,8.60
2022-10-23T23:25:04.511Z,8.57
2022-10-23T23:35:06.852Z,8.58
2022-10-23T23:45:14.901Z,8.50
2022-10-23T23:55:18.217Z,8.44
